Time;durP1;ratioP1;P1;durP2;ratioP2;P2;SDS_P1;SDS_P2;PMS_P1;PMS_P2;Temp;Humidity;BMP_temperature;BMP_pressure;BME280_temperature;BME280_humidity;BME280_pressure;Samples;Min_cycle;Max_cycle;Signal;HPM_P1;HPM_P2
2021/05/09 00:01:27;;;;;;;5.70;3.40;;;;;;;8.76;50.24;94401.09;6049932;23;20022;-87
2021/05/09 00:03:53;;;;;;;3.10;2.42;;;;;;;8.84;51.35;94426.97;6078608;23;20022;-88
2021/05/09 00:06:19;;;;;;;4.72;2.20;;;;;;;8.76;51.51;94424.81;6088362;23;20032;-88
2021/05/09 00:08:48;;;;;;;2.72;2.53;;;;;;;8.62;52.22;94419.28;6072714;23;20327;-88
2021/05/09 00:11:17;;;;;;;2.83;2.53;;;;;;;8.61;51.86;94427.41;6063215;23;20014;-87
2021/05/09 00:13:42;;;;;;;5.45;2.45;;;;;;;8.60;51.49;94423.22;6082013;23;20045;-88
2021/05/09 00:16:08;;;;;;;4.13;3.20;;;;;;;8.60;51.89;94433.75;6086002;23;20046;-88
2021/05/09 00:18:36;;;;;;;3.40;2.78;;;;;;;8.58;52.19;94427.94;6014805;23;20325;-88
2021/05/09 00:21:02;;;;;;;3.05;2.63;;;;;;;8.53;51.79;94430.56;6071015;23;20017;-88
2021/05/09 00:23:28;;;;;;;4.13;2.70;;;;;;;8.57;52.33;94415.81;6091613;23;19998;-85
2021/05/09 00:25:53;;;;;;;5.10;3.40;;;;;;;8.50;53.08;94410.03;6083009;23;20007;-88
2021/05/09 00:28:22;;;;;;;6.13;3.28;;;;;;;8.44;52.87;94408.44;6047693;23;20069;-88
2021/05/09 00:30:47;;;;;;;4.13;2.90;;;;;;;8.35;52.37;94416.06;6088767;23;20042;-88
2021/05/09 00:33:14;;;;;;;3.58;3.08;;;;;;;8.33;53.16;94419.97;6088374;23;20038;-87
2021/05/09 00:35:40;;;;;;;5.43;3.03;;;;;;;8.20;53.49;94416.75;6082279;23;20029;-86
2021/05/09 00:38:08;;;;;;;3.17;2.88;;;;;;;8.16;53.41;94405.13;6084015;23;20046;-88
2021/05/09 00:40:34;;;;;;;3.58;2.85;;;;;;;8.05;53.46;94392.22;6083566;23;20022;-88
2021/05/09 00:43:00;;;;;;;6.00;4.38;;;;;;;8.11;52.96;94412.25;6081398;23;20109;-88
2021/05/09 00:45:25;;;;;;;7.70;3.75;;;;;;;8.15;52.55;94406.22;6082416;23;20433;-89
2021/05/09 00:47:53;;;;;;;4.75;3.78;;;;;;;8.31;51.73;94407.06;6080711;23;20010;-84
2021/05/09 00:50:23;;;;;;;5.43;3.38;;;;;;;8.23;51.80;94389.91;6084638;23;20013;-88
2021/05/09 00:52:49;;;;;;;3.92;3.47;;;;;;;8.28;51.63;94399.66;6084319;23;20093;-89
2021/05/09 00:55:16;;;;;;;6.88;4.03;;;;;;;8.37;52.18;94421.03;6086497;23;20526;-87
2021/05/09 00:57:43;;;;;;;4.32;3.67;;;;;;;8.09;52.91;94383.53;6081707;23;20038;-88
2021/05/09 01:00:11;;;;;;;6.82;4.18;;;;;;;8.29;52.96;94419.69;6079458;23;20022;-88
2021/05/09 01:02:40;;;;;;;6.32;4.70;;;;;;;8.19;53.06;94423.06;6079600;23;20430;-84
2021/05/09 01:05:07;;;;;;;4.72;4.00;;;;;;;8.11;53.14;94417.53;6096399;23;20002;-88
2021/05/09 01:07:33;;;;;;;5.10;3.90;;;;;;;8.16;53.33;94428.84;6080507;23;20090;-85
2021/05/09 01:10:06;;;;;;;4.80;3.58;;;;;;;8.07;52.58;94416.44;6088539;23;20036;-88
2021/05/09 01:12:42;;;;;;;7.28;3.90;;;;;;;8.00;53.20;94411.41;6088913;23;20052;-88
2021/05/09 01:15:17;;;;;;;3.90;3.50;;;;;;;8.04;53.21;94412.47;6092002;23;20026;-88
2021/05/09 01:17:43;;;;;;;5.05;4.13;;;;;;;7.92;52.30;94398.72;6076353;23;20002;-88
2021/05/09 01:20:14;;;;;;;3.63;3.33;;;;;;;8.12;53.29;94427.78;6062482;23;20314;-89
2021/05/09 01:22:41;;;;;;;4.93;3.33;;;;;;;8.10;52.46;94422.00;6083494;23;20034;-88
2021/05/09 01:25:08;;;;;;;4.43;3.90;;;;;;;8.07;52.71;94416.44;6086912;23;20040;-89
2021/05/09 01:27:37;;;;;;;3.83;3.33;;;;;;;8.07;52.80;94429.59;6072718;23;20050;-88
2021/05/09 01:30:08;;;;;;;4.05;3.63;;;;;;;8.05;53.01;94429.06;6081997;23;20018;-88
2021/05/09 01:32:33;;;;;;;4.43;3.33;;;;;;;7.87;52.83;94417.13;6082500;23;20029;-88
2021/05/09 01:34:59;;;;;;;4.05;3.47;;;;;;;7.85;52.98;94413.97;6083492;23;20484;-88
2021/05/09 01:37:24;;;;;;;6.40;3.80;;;;;;;7.88;52.87;94413.47;6079460;23;20018;-88
2021/05/09 01:39:50;;;;;;;6.82;3.80;;;;;;;7.96;52.96;94435.88;6040735;23;20046;-87
2021/05/09 01:42:15;;;;;;;6.25;4.55;;;;;;;7.88;52.38;94423.97;6074831;23;20041;-86
2021/05/09 01:44:51;;;;;;;6.43;4.15;;;;;;;7.91;52.10;94418.22;6091244;23;20003;-88
2021/05/09 01:47:16;;;;;;;6.68;4.30;;;;;;;7.92;52.70;94419.00;6094469;23;20010;-88
2021/05/09 01:49:41;;;;;;;5.10;4.60;;;;;;;8.02;52.24;94425.09;6081440;23;20077;-88
2021/05/09 01:52:09;;;;;;;6.07;3.55;;;;;;;8.07;51.57;94429.59;6083906;23;20029;-88
2021/05/09 01:54:40;;;;;;;3.58;3.22;;;;;;;7.92;52.35;94419.00;6043783;23;20042;-87
2021/05/09 01:57:05;;;;;;;4.20;3.45;;;;;;;7.75;52.75;94408.66;6063031;23;20418;-87
2021/05/09 01:59:31;;;;;;;4.38;3.53;;;;;;;7.72;52.59;94403.94;6072497;23;20026;-88
2021/05/09 02:02:00;;;;;;;4.88;3.15;;;;;;;7.79;53.37;94431.59;6081666;23;20257;-88
2021/05/09 02:04:26;;;;;;;4.63;3.10;;;;;;;7.65;54.14;94419.13;6081338;23;20022;-88
2021/05/09 02:06:51;;;;;;;4.95;3.20;;;;;;;7.75;54.26;94448.13;6080487;23;20104;-87
2021/05/09 02:09:17;;;;;;;4.03;3.33;;;;;;;7.73;54.98;94451.00;6081236;23;20250;-87
2021/05/09 02:11:42;;;;;;;5.00;2.53;;;;;;;7.48;55.70;94418.53;6082616;23;20017;-88
2021/05/09 02:14:08;;;;;;;3.65;2.95;;;;;;;7.44;55.88;94427.94;6093543;23;20002;-88
2021/05/09 02:16:37;;;;;;;4.90;3.08;;;;;;;7.54;55.99;94443.78;6062300;23;20014;-88
2021/05/09 02:19:05;;;;;;;4.10;3.03;;;;;;;7.55;56.68;94456.69;6068970;23;20101;-88
2021/05/09 02:21:32;;;;;;;4.15;3.28;;;;;;;7.41;56.72;94455.53;6080913;23;20049;-88
2021/05/09 02:23:57;;;;;;;6.43;3.45;;;;;;;7.38;57.17;94451.56;6078684;23;20093;-88
2021/05/09 02:26:23;;;;;;;5.65;4.22;;;;;;;7.24;57.25;94442.53;6084987;23;20412;-88
2021/05/09 02:28:51;;;;;;;7.30;3.88;;;;;;;7.21;55.27;94440.41;6069980;23;20409;-87
2021/05/09 02:31:19;;;;;;;5.55;3.33;;;;;;;7.21;56.76;94445.66;6081355;23;20007;-87
2021/05/09 02:33:47;;;;;;;5.15;3.75;;;;;;;7.21;55.83;94440.41;6086164;23;20093;-88
2021/05/09 02:36:16;;;;;;;6.93;4.32;;;;;;;7.17;56.82;94447.22;6081762;23;20352;-84
2021/05/09 02:38:44;;;;;;;4.57;3.85;;;;;;;7.19;56.71;94453.00;6079096;23;20026;-88
2021/05/09 02:41:09;;;;;;;5.22;3.65;;;;;;;7.05;56.74;94441.31;6095166;23;20002;-88
2021/05/09 02:43:37;;;;;;;5.90;3.53;;;;;;;7.05;56.29;94449.22;6079016;23;20018;-88
2021/05/09 02:46:03;;;;;;;6.95;3.65;;;;;;;7.11;56.54;94461.34;6051656;23;20022;-87
2021/05/09 02:48:30;;;;;;;4.43;3.92;;;;;;;7.13;55.16;94459.28;6099008;23;20456;-89
2021/05/09 02:50:58;;;;;;;4.13;3.38;;;;;;;7.11;54.50;94461.34;6067698;23;20536;-87
2021/05/09 02:53:26;;;;;;;6.25;3.92;;;;;;;7.20;55.50;94461.69;6083309;23;20006;-87
2021/05/09 02:55:54;;;;;;;4.85;3.42;;;;;;;7.10;56.06;94458.97;6068843;23;20492;-88
2021/05/09 02:58:23;;;;;;;5.32;3.35;;;;;;;7.11;54.72;94460.56;6082296;23;20105;-87
2021/05/09 03:00:48;;;;;;;4.75;3.53;;;;;;;7.16;55.84;94469.28;6088216;23;20408;-87
2021/05/09 03:03:13;;;;;;;4.50;3.92;;;;;;;7.06;55.56;94456.06;6064869;23;20054;-88
2021/05/09 03:05:39;;;;;;;5.10;3.72;;;;;;;7.11;56.41;94471.88;6090235;23;20085;-88
2021/05/09 03:08:04;;;;;;;4.45;3.25;;;;;;;7.08;56.77;94472.38;6088774;23;20002;-89
2021/05/09 03:10:30;;;;;;;5.32;3.90;;;;;;;7.09;55.87;94471.31;6083664;23;20025;-88
2021/05/09 03:12:59;;;;;;;4.18;3.22;;;;;;;7.12;56.13;94486.59;6081485;23;20149;-88
2021/05/09 03:15:28;;;;;;;9.45;3.88;;;;;;;7.00;56.40;94491.22;6081635;23;20029;-87
2021/05/09 03:17:53;;;;;;;5.38;3.88;;;;;;;6.79;56.76;94469.19;6081880;23;20475;-87
2021/05/09 03:20:19;;;;;;;5.47;3.30;;;;;;;6.71;55.80;94439.97;6085360;23;20006;-88
2021/05/09 03:22:45;;;;;;;6.88;3.60;;;;;;;7.39;53.88;94471.56;6081559;23;20026;-89
2021/05/09 03:25:11;;;;;;;3.58;2.97;;;;;;;7.94;53.73;94485.34;6085029;23;20022;-87
2021/05/09 03:27:36;;;;;;;4.35;3.33;;;;;;;7.96;53.44;94468.25;6083961;23;20015;-85
2021/05/09 03:30:03;;;;;;;3.65;3.17;;;;;;;8.39;52.81;94479.53;6090005;23;20042;-88
2021/05/09 03:32:28;;;;;;;3.47;3.15;;;;;;;8.49;52.44;94476.94;6091559;23;20006;-87
2021/05/09 03:34:54;;;;;;;5.95;3.60;;;;;;;9.24;50.55;94483.38;6084123;23;20115;-88
2021/05/09 03:37:22;;;;;;;3.50;3.08;;;;;;;9.72;49.84;94480.22;6085122;23;20389;-88
2021/05/09 03:39:55;;;;;;;5.85;3.90;;;;;;;10.15;48.18;94462.16;6081298;23;20026;-88
2021/05/09 03:42:23;;;;;;;5.03;3.40;;;;;;;10.45;47.46;94454.16;6081430;23;20397;-89
2021/05/09 03:44:49;;;;;;;11.25;3.17;;;;;;;10.68;47.11;94461.44;6081315;23;20109;-88
2021/05/09 03:47:14;;;;;;;4.32;3.00;;;;;;;11.04;46.47;94461.25;6097126;23;20125;-88
2021/05/09 03:49:41;;;;;;;5.03;3.33;;;;;;;11.19;46.19;94443.38;6083421;23;20018;-89
2021/05/09 03:52:09;;;;;;;5.35;3.05;;;;;;;11.52;45.54;94449.75;6085326;23;20105;-88
2021/05/09 03:54:35;;;;;;;5.72;3.55;;;;;;;11.91;44.61;94462.94;6086636;23;20073;-88
2021/05/09 03:57:00;;;;;;;4.25;3.50;;;;;;;11.96;44.59;94444.34;6088579;23;20018;-88
2021/05/09 03:59:29;;;;;;;10.65;4.53;;;;;;;12.61;43.71;94510.16;6080944;23;20402;-89
2021/05/09 04:01:54;;;;;;;8.35;5.20;;;;;;;13.16;42.63;94498.81;6079400;23;20014;-89
2021/05/09 04:04:19;;;;;;;10.77;6.38;;;;;;;13.45;41.59;94475.56;6078309;23;20045;-87
2021/05/09 04:06:45;;;;;;;9.30;5.90;;;;;;;13.87;41.11;94492.44;6079450;23;20234;-89
2021/05/09 04:09:10;;;;;;;9.85;6.85;;;;;;;14.02;40.64;94488.72;6089451;23;20022;-89
2021/05/09 04:11:36;;;;;;;9.30;6.38;;;;;;;14.49;40.05;94487.59;6081356;23;20010;-87
2021/05/09 04:14:05;;;;;;;10.60;5.70;;;;;;;15.02;39.09;94501.94;6083724;23;20365;-89
2021/05/09 04:16:33;;;;;;;11.43;5.70;;;;;;;15.00;38.24;94466.09;6067308;23;20015;-88
2021/05/09 04:18:58;;;;;;;11.90;7.00;;;;;;;16.15;37.16;94507.06;6069401;23;20028;-89
2021/05/09 04:21:24;;;;;;;10.43;6.20;;;;;;;16.55;36.22;94462.53;6095160;23;20408;-89
2021/05/09 04:23:52;;;;;;;10.70;6.60;;;;;;;17.12;35.86;94494.56;6080468;23;20018;-90
2021/05/09 04:26:18;;;;;;;7.25;6.22;;;;;;;17.38;34.87;94499.94;6082804;23;20017;-88
2021/05/09 04:28:44;;;;;;;6.05;5.18;;;;;;;17.57;33.46;94465.66;6063847;23;20019;-89
2021/05/09 04:31:09;;;;;;;8.05;4.80;;;;;;;17.73;33.20;94493.53;6083209;23;20022;-89
2021/05/09 04:33:35;;;;;;;6.20;4.00;;;;;;;17.47;32.08;94504.19;6083381;23;20033;-90
2021/05/09 04:36:03;;;;;;;6.88;4.38;;;;;;;17.64;31.40;94503.44;6080032;23;20018;-89
2021/05/09 04:38:35;;;;;;;5.05;3.75;;;;;;;17.43;32.72;94492.56;6080948;23;20549;-89
2021/05/09 04:41:09;;;;;;;7.35;4.75;;;;;;;18.30;32.48;94526.16;6082751;23;20017;-89
2021/05/09 04:43:37;;;;;;;5.77;4.30;;;;;;;18.57;31.89;94520.41;6080813;23;20479;-90
2021/05/09 04:46:02;;;;;;;8.40;5.05;;;;;;;18.82;30.79;94509.91;6078925;23;20019;-89
2021/05/09 04:48:28;;;;;;;11.65;5.45;;;;;;;19.29;30.82;94532.84;6032132;23;20022;-90
2021/05/09 04:50:56;;;;;;;11.35;5.43;;;;;;;18.73;31.12;94491.22;6068993;23;20014;-87
2021/05/09 04:53:37;;;;;;;6.22;3.42;;;;;;;19.30;29.46;94539.75;6093091;23;20009;-90
2021/05/09 04:56:07;;;;;;;5.03;4.53;;;;;;;19.54;29.93;94525.78;6082493;23;20018;-89
2021/05/09 04:58:36;;;;;;;8.77;5.10;;;;;;;19.70;30.32;94520.56;6081309;23;20077;-88
2021/05/09 05:01:07;;;;;;;7.70;4.97;;;;;;;20.47;28.59;94524.47;6086645;23;20018;-91
2021/05/09 05:03:33;;;;;;;12.10;5.30;;;;;;;20.61;27.64;94500.78;6080641;23;20449;-90
2021/05/09 05:05:59;;;;;;;5.50;3.95;;;;;;;20.47;28.29;94529.84;6079574;23;20122;-90
2021/05/09 05:08:26;;;;;;;6.15;4.22;;;;;;;20.73;27.90;94511.53;6082757;23;20006;-90
2021/05/09 05:10:52;;;;;;;8.57;4.55;;;;;;;21.35;27.15;94513.13;6081646;23;20038;-89
2021/05/09 05:13:31;;;;;;;8.82;4.07;;;;;;;21.09;28.33;94524.97;6081840;23;20046;-90
2021/05/09 05:15:59;;;;;;;6.20;4.18;;;;;;;21.12;28.20;94518.13;6053469;23;20058;-89
2021/05/09 05:18:29;;;;;;;8.30;5.13;;;;;;;21.90;26.84;94498.94;6089399;23;20751;-89
2021/05/09 05:20:56;;;;;;;6.90;5.50;;;;;;;21.87;26.84;94516.56;6078733;23;20049;-90
2021/05/09 05:23:31;;;;;;;5.32;4.25;;;;;;;22.09;27.12;94511.81;6097164;23;20014;-90
2021/05/09 05:26:05;;;;;;;7.50;4.93;;;;;;;22.47;26.65;94536.31;6081094;23;20018;-89
2021/05/09 05:28:34;;;;;;;7.38;4.55;;;;;;;22.63;26.89;94531.69;6046141;23;20129;-90
2021/05/09 05:31:17;;;;;;;7.93;4.75;;;;;;;23.63;25.15;94514.09;6059724;23;20018;-91
2021/05/09 05:33:48;;;;;;;4.90;4.13;;;;;;;23.69;24.68;94520.00;6072778;23;20028;-89
2021/05/09 05:36:17;;;;;;;4.40;3.92;;;;;;;24.05;24.42;94499.88;6068781;23;20455;-91
2021/05/09 05:38:51;;;;;;;6.63;4.75;;;;;;;24.47;24.21;94537.78;6027660;23;20177;-91
2021/05/09 05:41:17;;;;;;;4.90;4.20;;;;;;;25.12;23.45;94525.00;6020851;23;20147;-91
2021/05/09 05:43:42;;;;;;;5.97;4.15;;;;;;;25.24;22.93;94535.66;6076362;23;20369;-90
2021/05/09 05:46:11;;;;;;;5.55;4.35;;;;;;;25.69;21.93;94542.91;6020668;23;20015;-90
2021/05/09 05:48:47;;;;;;;6.47;4.03;;;;;;;26.00;22.39;94565.38;6069857;23;20018;-91
2021/05/09 05:51:13;;;;;;;4.82;3.72;;;;;;;26.26;21.75;94557.22;6079106;23;20026;-91
2021/05/09 05:53:38;;;;;;;5.50;3.80;;;;;;;26.53;20.90;94517.25;6028524;23;20053;-91
2021/05/09 05:56:04;;;;;;;5.55;4.30;;;;;;;26.08;21.66;94524.47;6015036;23;20361;-91
2021/05/09 05:58:32;;;;;;;4.03;3.63;;;;;;;27.02;19.97;94544.09;6079660;23;20022;-91
2021/05/09 06:00:58;;;;;;;5.40;3.75;;;;;;;26.47;19.85;94513.31;6080750;23;20036;-90
2021/05/09 06:03:24;;;;;;;4.90;3.53;;;;;;;26.98;19.85;94533.19;6076392;23;20018;-91
2021/05/09 06:05:50;;;;;;;6.80;3.72;;;;;;;26.89;20.35;94519.16;5982193;23;20021;-92
2021/05/09 06:08:18;;;;;;;5.75;3.75;;;;;;;26.74;20.16;94533.72;6025818;23;20014;-91
2021/05/09 06:10:47;;;;;;;6.38;3.35;;;;;;;27.12;18.96;94522.47;6081774;23;20022;-90
2021/05/09 06:13:23;;;;;;;4.80;3.47;;;;;;;27.81;18.81;94551.66;6063834;23;20062;-91
2021/05/09 06:15:51;;;;;;;4.55;3.95;;;;;;;28.28;19.45;94539.91;6052957;23;20029;-90
2021/05/09 06:18:17;;;;;;;6.28;4.07;;;;;;;28.36;18.30;94514.28;6060488;23;20101;-90
2021/05/09 06:20:43;;;;;;;4.18;3.72;;;;;;;29.19;17.40;94519.50;6081653;23;20089;-90
2021/05/09 06:23:10;;;;;;;4.65;3.58;;;;;;;29.40;17.88;94557.63;6094245;23;20117;-90
2021/05/09 06:25:36;;;;;;;5.78;3.53;;;;;;;29.77;17.47;94526.44;6083732;23;20532;-90
2021/05/09 06:28:11;;;;;;;6.93;3.60;;;;;;;29.57;17.90;94564.22;6080780;23;20015;-91
2021/05/09 06:30:43;;;;;;;4.10;3.50;;;;;;;29.34;17.35;94558.41;6032471;23;20019;-92
2021/05/09 06:33:08;;;;;;;4.38;3.42;;;;;;;30.37;17.43;94554.34;6069054;23;20018;-91
2021/05/09 06:35:37;;;;;;;5.57;4.32;;;;;;;30.57;16.63;94530.09;6052431;23;20053;-94
2021/05/09 06:38:07;;;;;;;4.43;2.97;;;;;;;29.70;17.40;94533.50;6060713;23;20017;-92
2021/05/09 06:40:34;;;;;;;10.65;3.78;;;;;;;30.63;17.27;94549.56;6064827;23;20522;-91
2021/05/09 06:43:04;;;;;;;9.55;3.28;;;;;;;30.54;16.47;94574.56;6080762;23;20018;-91
2021/05/09 06:45:33;;;;;;;4.00;3.40;;;;;;;31.21;16.62;94568.72;6082131;23;20018;-91
2021/05/09 06:48:24;;;;;;;5.93;3.03;;;;;;;31.54;15.73;94537.22;6079612;23;20109;-95
2021/05/09 06:50:50;;;;;;;9.98;3.30;;;;;;;30.94;16.13;94575.88;6077372;23;20014;-91
2021/05/09 06:53:15;;;;;;;10.85;3.30;;;;;;;31.58;15.49;94548.16;6086378;23;20006;-91
2021/05/09 06:55:45;;;;;;;7.18;2.63;;;;;;;31.37;14.81;94566.25;6081094;23;20181;-90
2021/05/09 06:58:11;;;;;;;2.85;2.13;;;;;;;31.02;15.21;94533.75;6080873;23;20061;-89
2021/05/09 07:00:37;;;;;;;3.70;2.30;;;;;;;29.89;16.42;94572.41;6081773;23;20113;-87
2021/05/09 07:03:03;;;;;;;2.97;1.98;;;;;;;31.15;16.17;94553.94;6081734;23;20463;-89
2021/05/09 07:05:29;;;;;;;4.03;2.60;;;;;;;31.87;15.45;94579.50;6081120;23;20006;-93
2021/05/09 07:07:58;;;;;;;4.22;2.42;;;;;;;32.46;15.07;94584.75;6092878;23;20025;-93
2021/05/09 07:10:26;;;;;;;3.10;2.30;;;;;;;32.94;14.84;94582.59;6085883;23;20070;-89
2021/05/09 07:12:54;;;;;;;7.88;2.70;;;;;;;33.89;13.69;94574.91;6077955;23;20069;-91
2021/05/09 07:15:42;;;;;;;2.50;2.30;;;;;;;32.44;14.53;94570.72;6080417;23;20023;-87
2021/05/09 07:18:20;;;;;;;3.72;2.38;;;;;;;32.87;14.99;94549.06;6091178;23;20015;-86
2021/05/09 07:20:51;;;;;;;3.25;2.97;;;;;;;33.49;13.83;94537.56;6079825;23;20011;-86
2021/05/09 07:23:16;;;;;;;8.65;3.13;;;;;;;33.69;13.96;94568.59;6077870;23;20022;-85
2021/05/09 07:25:42;;;;;;;5.53;3.40;;;;;;;34.14;14.00;94590.13;6074357;23;20014;-92
2021/05/09 07:28:13;;;;;;;6.97;2.78;;;;;;;33.81;13.66;94573.47;6078808;23;20046;-85
2021/05/09 07:30:41;;;;;;;4.10;3.08;;;;;;;33.65;13.27;94575.28;6065422;23;20026;-83
2021/05/09 07:33:12;;;;;;;3.75;2.85;;;;;;;33.36;13.84;94558.53;6084706;23;20057;-87
2021/05/09 07:35:37;;;;;;;3.90;3.10;;;;;;;33.41;14.03;94596.44;6078294;23;20093;-85
2021/05/09 07:38:06;;;;;;;4.30;2.75;;;;;;;33.41;13.65;94550.63;6092128;23;20045;-88
2021/05/09 07:40:35;;;;;;;3.67;3.17;;;;;;;33.85;13.39;94570.66;6076664;23;20469;-91
2021/05/09 07:43:08;;;;;;;4.35;3.05;;;;;;;33.93;13.67;94559.16;6079305;23;20014;-88
2021/05/09 07:45:34;;;;;;;7.32;3.20;;;;;;;33.55;14.17;94577.00;6075246;23;20074;-83
2021/05/09 07:48:01;;;;;;;4.72;3.15;;;;;;;34.29;13.78;94591.44;6086842;23;20312;-89
2021/05/09 07:50:27;;;;;;;5.70;3.42;;;;;;;34.38;13.33;94588.13;6078840;23;20010;-86
2021/05/09 07:52:52;;;;;;;8.13;3.50;;;;;;;34.27;13.12;94594.59;6078972;23;20025;-89
2021/05/09 07:55:18;;;;;;;3.97;3.03;;;;;;;35.14;13.25;94595.94;6044008;23;20026;-88
2021/05/09 07:57:46;;;;;;;3.33;2.97;;;;;;;34.69;12.95;94593.03;6081148;23;20022;-87
2021/05/09 08:00:16;;;;;;;3.78;2.60;;;;;;;35.09;12.27;94577.22;6067131;23;20453;-89
2021/05/09 08:02:43;;;;;;;4.68;2.60;;;;;;;34.18;12.95;94566.94;6028837;23;20278;-93
2021/05/09 08:05:13;;;;;;;3.28;2.20;;;;;;;34.46;13.37;94584.81;6068253;23;20019;-89
2021/05/09 08:07:53;;;;;;;5.78;2.78;;;;;;;34.07;12.97;94573.78;6073441;23;20030;-89
2021/05/09 08:10:22;;;;;;;4.82;2.50;;;;;;;34.15;13.38;94572.47;6075880;23;20371;-89
2021/05/09 08:12:47;;;;;;;4.00;2.45;;;;;;;35.19;12.79;94581.72;6058757;23;20441;-86
2021/05/09 08:15:14;;;;;;;6.28;2.88;;;;;;;35.48;12.23;94579.09;6078899;23;20089;-89
2021/05/09 08:17:42;;;;;;;5.53;2.58;;;;;;;35.75;12.56;94578.09;6076757;23;20101;-89
2021/05/09 08:20:11;;;;;;;7.00;2.63;;;;;;;35.72;12.03;94545.97;6079285;23;20130;-89
2021/05/09 08:22:39;;;;;;;2.80;2.50;;;;;;;37.03;11.81;94586.41;6076144;23;20061;-85
2021/05/09 08:25:07;;;;;;;3.00;2.28;;;;;;;37.13;10.83;94580.63;6075418;23;20022;-92
2021/05/09 08:27:41;;;;;;;5.75;2.53;;;;;;;36.63;11.02;94561.22;6080727;23;20003;-90
2021/05/09 08:30:10;;;;;;;31.65;10.35;;;;;;;37.56;11.34;94584.81;6078221;23;20219;-92
2021/05/09 08:32:35;;;;;;;3.97;2.00;;;;;;;37.31;10.79;94558.00;6077560;23;20050;-90
2021/05/09 08:35:05;;;;;;;31.67;10.18;;;;;;;38.31;10.45;94563.78;6076689;23;20528;-89
2021/05/09 08:37:35;;;;;;;3.00;2.10;;;;;;;36.48;11.18;94569.09;6066016;23;20018;-90
2021/05/09 08:40:00;;;;;;;3.88;1.60;;;;;;;36.02;12.01;94553.78;6081138;23;20025;-89
2021/05/09 08:42:26;;;;;;;3.20;1.98;;;;;;;36.78;11.26;94545.84;6085384;23;20006;-87
2021/05/09 08:44:54;;;;;;;6.45;1.70;;;;;;;36.97;11.15;94560.63;6079124;23;20062;-88
2021/05/09 08:47:36;;;;;;;4.38;1.77;;;;;;;37.65;11.64;94593.19;6079320;23;20348;-88
2021/05/09 08:50:05;;;;;;;1.90;1.80;;;;;;;38.68;10.21;94590.44;6079559;23;20049;-87
2021/05/09 08:52:32;;;;;;;5.30;2.47;;;;;;;37.65;10.63;94577.41;6080111;23;20038;-91
2021/05/09 08:54:58;;;;;;;4.65;1.40;;;;;;;36.03;11.05;94577.34;6079318;23;20018;-87
2021/05/09 08:57:23;;;;;;;2.30;1.60;;;;;;;36.23;11.77;94580.00;6083646;23;20037;-91
2021/05/09 08:59:56;;;;;;;3.00;2.30;;;;;;;36.79;11.22;94561.94;6079099;23;20121;-88
2021/05/09 09:02:23;;;;;;;2.67;1.63;;;;;;;36.24;11.09;94582.34;6081924;23;20065;-91
2021/05/09 09:04:53;;;;;;;7.00;2.05;;;;;;;36.74;11.36;94583.72;6079062;23;20026;-91
2021/05/09 09:07:26;;;;;;;1.98;1.30;;;;;;;35.85;11.84;94555.81;6086898;23;20028;-88
2021/05/09 09:09:57;;;;;;;3.95;1.70;;;;;;;35.74;11.74;94543.53;6081869;23;20316;-85
2021/05/09 09:12:22;;;;;;;3.22;1.52;;;;;;;35.50;11.77;94535.47;6082890;23;20010;-90
2021/05/09 09:15:14;;;;;;;3.58;1.48;;;;;;;36.13;11.83;94546.06;6074453;23;20033;-86
2021/05/09 09:17:39;;;;;;;2.63;1.58;;;;;;;35.67;12.40;94541.00;6067648;23;20002;-87
2021/05/09 09:20:18;;;;;;;3.80;1.48;;;;;;;34.81;12.30;94568.84;6037311;23;20452;-91
2021/05/09 09:22:57;;;;;;;3.20;1.40;;;;;;;33.73;13.09;94561.06;6066418;23;20046;-91
2021/05/09 09:25:34;;;;;;;2.55;1.45;;;;;;;30.17;15.24;94550.50;6066985;23;20452;-90
2021/05/09 09:28:01;;;;;;;6.25;2.53;;;;;;;28.89;16.96;94555.22;6072584;23;20049;-90
2021/05/09 09:30:28;;;;;;;2.40;1.20;;;;;;;28.71;16.63;94568.81;6082624;23;20010;-91
2021/05/09 09:33:09;;;;;;;6.07;2.35;;;;;;;27.01;19.20;94570.44;6074873;23;20018;-89
2021/05/09 09:35:39;;;;;;;8.05;1.98;;;;;;;26.65;19.20;94563.06;6081215;23;20015;-87
2021/05/09 09:38:26;;;;;;;5.25;1.90;;;;;;;27.28;18.96;94567.56;6077642;23;20014;-88
2021/05/09 09:41:12;;;;;;;5.55;2.25;;;;;;;26.17;19.20;94576.44;6074449;23;20048;-90
2021/05/09 09:43:38;;;;;;;5.40;2.00;;;;;;;24.63;20.18;94548.50;6073673;23;20494;-88
2021/05/09 09:46:04;;;;;;;4.28;2.63;;;;;;;25.00;20.09;94574.69;6077933;23;20074;-87
2021/05/09 09:48:40;;;;;;;5.03;2.00;;;;;;;24.07;19.58;94538.91;6059321;23;20128;-92
2021/05/09 09:51:09;;;;;;;5.78;1.65;;;;;;;23.63;20.61;94559.97;6078515;23;20029;-83
2021/05/09 09:53:39;;;;;;;2.42;1.35;;;;;;;24.42;20.89;94568.56;6080354;23;20023;-88
2021/05/09 09:56:12;;;;;;;3.08;1.20;;;;;;;24.95;20.10;94528.22;6089305;23;20038;-86
2021/05/09 09:59:02;;;;;;;3.28;1.20;;;;;;;25.28;20.24;94568.94;6093198;23;20013;-88
2021/05/09 10:01:33;;;;;;;3.55;1.50;;;;;;;24.99;19.04;94531.75;6082996;23;20455;-88
2021/05/09 10:04:02;;;;;;;2.13;1.20;;;;;;;24.15;19.08;94539.81;6082449;23;20027;-88
2021/05/09 10:06:28;;;;;;;3.60;1.10;;;;;;;23.77;20.35;94564.88;6084935;23;20023;-88
2021/05/09 10:08:57;;;;;;;3.55;1.45;;;;;;;23.78;20.50;94557.56;6048740;23;20450;-89
2021/05/09 10:11:23;;;;;;;1.45;1.33;;;;;;;23.54;19.95;94529.72;5941335;23;20026;-86
2021/05/09 10:13:52;;;;;;;2.78;1.40;;;;;;;23.87;20.56;94542.75;6080344;23;20069;-88
2021/05/09 10:16:40;;;;;;;1.70;1.20;;;;;;;23.82;20.14;94558.44;6080913;23;20061;-89
2021/05/09 10:19:13;;;;;;;1.83;1.10;;;;;;;22.36;20.67;94537.91;6079945;23;20084;-93
2021/05/09 10:21:42;;;;;;;1.75;1.52;;;;;;;22.59;20.48;94547.00;5918040;23;20486;-89
2021/05/09 10:24:19;;;;;;;4.00;1.42;;;;;;;22.58;21.20;94561.59;6080835;23;20108;-89
2021/05/09 10:26:46;;;;;;;3.80;1.08;;;;;;;22.34;20.49;94557.09;6088776;23;20014;-84
2021/05/09 10:29:40;;;;;;;3.95;1.27;;;;;;;22.23;20.99;94555.28;6087946;23;20017;-85
2021/05/09 10:32:18;;;;;;;13.63;1.40;;;;;;;22.37;20.50;94550.28;6078817;23;20018;-89
2021/05/09 10:37:44;;;;;;;;;;;;;;;21.74;20.77;94566.16;6085795;23;20046;-90
2021/05/09 10:40:20;;;;;;;2.38;1.02;;;;;;;21.75;20.52;94535.44;6082773;23;20677;-87
2021/05/09 10:42:47;;;;;;;1.40;0.90;;;;;;;21.99;20.80;94543.44;6082818;23;20026;-91
2021/05/09 10:45:39;;;;;;;6.82;1.15;;;;;;;21.71;21.20;94561.44;6072899;23;20050;-87
2021/05/09 10:48:16;;;;;;;1.77;0.88;;;;;;;21.68;20.28;94545.22;6074395;23;20022;-89
2021/05/09 10:51:06;;;;;;;2.15;0.90;;;;;;;21.25;20.40;94532.41;6074397;23;20014;-88
2021/05/09 10:53:37;;;;;;;1.95;0.95;;;;;;;21.30;21.38;94532.16;6103961;23;20141;-88
2021/05/09 10:56:02;;;;;;;3.05;1.10;;;;;;;21.44;20.80;94533.38;6084630;23;20346;-91
2021/05/09 10:58:46;;;;;;;2.40;0.90;;;;;;;21.30;21.27;94534.84;6083333;23;20026;-84
2021/05/09 11:01:23;;;;;;;6.97;0.95;;;;;;;21.26;21.02;94528.59;6070955;23;20504;-86
2021/05/09 11:04:04;;;;;;;6.47;1.30;;;;;;;21.42;20.86;94521.38;6087827;23;20030;-93
2021/05/09 11:06:38;;;;;;;5.13;1.10;;;;;;;21.52;20.52;94524.41;6090286;23;20069;-92
2021/05/09 11:09:22;;;;;;;2.85;1.00;;;;;;;21.36;20.73;94522.72;6083439;23;20361;-86
2021/05/09 11:11:47;;;;;;;2.25;0.90;;;;;;;21.31;20.15;94510.31;6084272;23;20412;-87
2021/05/09 11:14:20;;;;;;;2.92;0.90;;;;;;;20.97;21.98;94518.81;6082961;23;20025;-87
2021/05/09 11:17:02;;;;;;;1.05;0.93;;;;;;;21.05;20.27;94509.88;6084634;23;20484;-91
2021/05/09 11:19:41;;;;;;;1.50;1.00;;;;;;;21.00;20.96;94484.00;6065829;23;20334;-89
2021/05/09 11:22:09;;;;;;;1.10;0.80;;;;;;;20.56;21.72;94464.19;6081002;23;20540;-89
2021/05/09 11:24:36;;;;;;;1.67;0.95;;;;;;;21.18;21.95;94501.47;6081604;23;20101;-82
2021/05/09 11:27:14;;;;;;;1.27;1.10;;;;;;;20.94;21.92;94495.31;6083891;23;20018;-83
2021/05/09 11:29:41;;;;;;;5.18;0.93;;;;;;;21.17;20.76;94499.91;6081271;23;20473;-84
2021/05/09 11:32:14;;;;;;;1.23;0.73;;;;;;;20.86;20.89;94483.56;6085128;23;20468;-85
2021/05/09 11:34:54;;;;;;;3.65;0.90;;;;;;;20.84;21.89;94493.84;6080040;23;20424;-88
2021/05/09 11:37:24;;;;;;;2.55;0.80;;;;;;;20.95;22.12;94484.22;6077041;23;20079;-86
2021/05/09 11:39:50;;;;;;;1.48;0.77;;;;;;;20.79;21.95;94472.59;6075301;23;20029;-85
2021/05/09 11:42:17;;;;;;;5.45;0.93;;;;;;;20.62;22.74;94470.13;6083588;23;20097;-87
2021/05/09 11:44:56;;;;;;;9.88;1.45;;;;;;;20.69;21.63;94457.69;6089399;23;20025;-88
2021/05/09 11:47:28;;;;;;;1.77;1.38;;;;;;;21.00;22.16;94481.31;6092604;23;20026;-90
2021/05/09 11:49:56;;;;;;;4.45;1.30;;;;;;;21.04;22.70;94484.88;6094909;23;20681;-91